sensor_id;sensor_type;location;lat;lon;timestamp;temperature;humidity
31799;DHT22;18374;51.136;3.502;2023-07-30T00:00:37;15.90;99.90
31799;DHT22;18374;51.136;3.502;2023-07-30T00:03:05;15.80;99.90
31799;DHT22;18374;51.136;3.502;2023-07-30T00:05:33;15.80;99.90
31799;DHT22;18374;51.136;3.502;2023-07-30T00:08:01;15.80;99.90
31799;DHT22;18374;51.136;3.502;2023-07-30T00:10:28;15.80;99.90
31799;DHT22;18374;51.136;3.502;2023-07-30T00:12:56;15.80;99.90
31799;DHT22;18374;51.136;3.502;2023-07-30T00:15:24;15.80;99.90
31799;DHT22;18374;51.136;3.502;2023-07-30T00:17:52;15.80;99.90
31799;DHT22;18374;51.136;3.502;2023-07-30T00:20:20;15.70;99.90
31799;DHT22;18374;51.136;3.502;2023-07-30T00:22:47;15.70;99.90
31799;DHT22;18374;51.136;3.502;2023-07-30T00:25:15;15.70;99.90
31799;DHT22;18374;51.136;3.502;2023-07-30T00:27:43;15.70;99.90
31799;DHT22;18374;51.136;3.502;2023-07-30T00:30:11;15.70;99.90
31799;DHT22;18374;51.136;3.502;2023-07-30T00:32:38;15.70;99.90
31799;DHT22;18374;51.136;3.502;2023-07-30T00:35:12;15.60;99.90
31799;DHT22;18374;51.136;3.502;2023-07-30T00:37:40;15.60;99.90
31799;DHT22;18374;51.136;3.502;2023-07-30T00:40:08;15.60;99.90
31799;DHT22;18374;51.136;3.502;2023-07-30T00:42:36;15.60;99.90
31799;DHT22;18374;51.136;3.502;2023-07-30T00:45:04;15.60;99.90
31799;DHT22;18374;51.136;3.502;2023-07-30T00:47:32;15.60;99.90
31799;DHT22;18374;51.136;3.502;2023-07-30T00:50:01;15.60;99.90
31799;DHT22;18374;51.136;3.502;2023-07-30T00:52:30;15.50;99.90
31799;DHT22;18374;51.136;3.502;2023-07-30T00:54:59;15.50;99.90
31799;DHT22;18374;51.136;3.502;2023-07-30T00:57:30;15.50;99.90
31799;DHT22;18374;51.136;3.502;2023-07-30T00:59:59;15.50;99.90
31799;DHT22;18374;51.136;3.502;2023-07-30T01:02:31;15.50;99.90
31799;DHT22;18374;51.136;3.502;2023-07-30T01:05:01;15.50;99.90
31799;DHT22;18374;51.136;3.502;2023-07-30T01:07:31;15.40;99.90
31799;DHT22;18374;51.136;3.502;2023-07-30T01:10:00;15.40;99.90
31799;DHT22;18374;51.136;3.502;2023-07-30T01:12:30;15.40;99.90
31799;DHT22;18374;51.136;3.502;2023-07-30T01:15:01;15.40;99.90
31799;DHT22;18374;51.136;3.502;2023-07-30T01:17:31;15.40;99.90
31799;DHT22;18374;51.136;3.502;2023-07-30T01:19:58;15.40;99.90
31799;DHT22;18374;51.136;3.502;2023-07-30T01:22:26;15.40;99.90
31799;DHT22;18374;51.136;3.502;2023-07-30T01:24:56;15.30;99.90
31799;DHT22;18374;51.136;3.502;2023-07-30T01:27:37;15.30;99.90
31799;DHT22;18374;51.136;3.502;2023-07-30T01:30:17;15.30;99.90
31799;DHT22;18374;51.136;3.502;2023-07-30T01:32:49;15.30;99.90
31799;DHT22;18374;51.136;3.502;2023-07-30T01:35:21;15.30;99.90
31799;DHT22;18374;51.136;3.502;2023-07-30T01:37:50;15.40;99.90
31799;DHT22;18374;51.136;3.502;2023-07-30T01:40:20;15.40;99.90
31799;DHT22;18374;51.136;3.502;2023-07-30T01:42:49;15.40;99.90
31799;DHT22;18374;51.136;3.502;2023-07-30T01:45:18;15.40;99.90
31799;DHT22;18374;51.136;3.502;2023-07-30T01:47:45;15.30;99.90
31799;DHT22;18374;51.136;3.502;2023-07-30T01:50:13;15.30;99.90
31799;DHT22;18374;51.136;3.502;2023-07-30T01:52:41;15.30;99.90
31799;DHT22;18374;51.136;3.502;2023-07-30T01:55:09;15.30;99.90
31799;DHT22;18374;51.136;3.502;2023-07-30T01:57:37;15.30;99.90
31799;DHT22;18374;51.136;3.502;2023-07-30T04:10:33;15.10;99.90
31799;DHT22;18374;51.136;3.502;2023-07-30T04:13:01;15.10;99.90
31799;DHT22;18374;51.136;3.502;2023-07-30T04:15:29;15.10;99.90
31799;DHT22;18374;51.136;3.502;2023-07-30T04:17:57;15.00;99.90
31799;DHT22;18374;51.136;3.502;2023-07-30T04:20:25;15.00;99.90
31799;DHT22;18374;51.136;3.502;2023-07-30T04:22:54;15.00;99.90
31799;DHT22;18374;51.136;3.502;2023-07-30T04:25:22;14.90;99.90
31799;DHT22;18374;51.136;3.502;2023-07-30T04:27:50;14.90;99.90
31799;DHT22;18374;51.136;3.502;2023-07-30T04:30:19;14.90;99.90
31799;DHT22;18374;51.136;3.502;2023-07-30T04:32:47;14.80;99.90
31799;DHT22;18374;51.136;3.502;2023-07-30T04:35:15;14.80;99.90
31799;DHT22;18374;51.136;3.502;2023-07-30T04:37:43;14.90;99.90
31799;DHT22;18374;51.136;3.502;2023-07-30T04:40:12;14.90;99.90
31799;DHT22;18374;51.136;3.502;2023-07-30T04:42:40;14.90;99.90
31799;DHT22;18374;51.136;3.502;2023-07-30T04:45:08;14.90;99.90
31799;DHT22;18374;51.136;3.502;2023-07-30T04:47:39;14.90;99.90
31799;DHT22;18374;51.136;3.502;2023-07-30T04:50:07;14.90;99.90
31799;DHT22;18374;51.136;3.502;2023-07-30T04:52:35;14.90;99.90
31799;DHT22;18374;51.136;3.502;2023-07-30T04:55:02;14.90;99.90
31799;DHT22;18374;51.136;3.502;2023-07-30T04:57:30;15.00;99.90
31799;DHT22;18374;51.136;3.502;2023-07-30T04:59:58;15.00;99.90
31799;DHT22;18374;51.136;3.502;2023-07-30T05:02:26;15.00;99.90
31799;DHT22;18374;51.136;3.502;2023-07-30T05:04:54;15.00;99.90
31799;DHT22;18374;51.136;3.502;2023-07-30T05:07:22;15.10;99.90
31799;DHT22;18374;51.136;3.502;2023-07-30T05:09:49;15.10;99.90
31799;DHT22;18374;51.136;3.502;2023-07-30T05:12:17;15.10;99.90
31799;DHT22;18374;51.136;3.502;2023-07-30T05:14:45;15.20;99.90
31799;DHT22;18374;51.136;3.502;2023-07-30T05:17:12;15.20;99.90
31799;DHT22;18374;51.136;3.502;2023-07-30T05:19:40;15.30;99.90
31799;DHT22;18374;51.136;3.502;2023-07-30T05:22:08;15.30;99.90
31799;DHT22;18374;51.136;3.502;2023-07-30T05:24:36;15.30;99.90
31799;DHT22;18374;51.136;3.502;2023-07-30T05:27:06;15.30;99.90
31799;DHT22;18374;51.136;3.502;2023-07-30T05:29:34;15.40;99.90
31799;DHT22;18374;51.136;3.502;2023-07-30T05:32:02;15.40;99.90
31799;DHT22;18374;51.136;3.502;2023-07-30T05:34:30;15.50;99.90
31799;DHT22;18374;51.136;3.502;2023-07-30T05:36:57;15.50;99.90
31799;DHT22;18374;51.136;3.502;2023-07-30T05:39:25;15.60;99.90
31799;DHT22;18374;51.136;3.502;2023-07-30T05:41:53;15.60;99.90
31799;DHT22;18374;51.136;3.502;2023-07-30T05:44:21;15.70;99.90
31799;DHT22;18374;51.136;3.502;2023-07-30T05:46:48;15.70;99.90
31799;DHT22;18374;51.136;3.502;2023-07-30T05:49:16;15.70;99.90
31799;DHT22;18374;51.136;3.502;2023-07-30T05:51:44;15.70;99.90
31799;DHT22;18374;51.136;3.502;2023-07-30T05:54:12;15.70;99.90
31799;DHT22;18374;51.136;3.502;2023-07-30T05:56:40;15.80;99.90
31799;DHT22;18374;51.136;3.502;2023-07-30T05:59:08;15.80;99.90
31799;DHT22;18374;51.136;3.502;2023-07-30T06:01:36;15.80;99.90
31799;DHT22;18374;51.136;3.502;2023-07-30T06:04:04;15.80;99.90
31799;DHT22;18374;51.136;3.502;2023-07-30T06:06:32;15.90;99.90
31799;DHT22;18374;51.136;3.502;2023-07-30T06:08:59;15.90;99.90
31799;DHT22;18374;51.136;3.502;2023-07-30T06:11:27;16.00;99.90
31799;DHT22;18374;51.136;3.502;2023-07-30T06:13:55;16.00;99.90
31799;DHT22;18374;51.136;3.502;2023-07-30T06:16:23;16.10;99.90
31799;DHT22;18374;51.136;3.502;2023-07-30T06:18:51;16.20;99.90
31799;DHT22;18374;51.136;3.502;2023-07-30T06:21:19;16.30;99.90
31799;DHT22;18374;51.136;3.502;2023-07-30T06:23:46;16.40;99.90
31799;DHT22;18374;51.136;3.502;2023-07-30T06:26:14;16.40;99.90
31799;DHT22;18374;51.136;3.502;2023-07-30T06:28:42;16.50;99.90
31799;DHT22;18374;51.136;3.502;2023-07-30T06:31:09;16.50;99.90
31799;DHT22;18374;51.136;3.502;2023-07-30T06:33:37;16.60;99.90
31799;DHT22;18374;51.136;3.502;2023-07-30T06:38:33;16.60;99.90
31799;DHT22;18374;51.136;3.502;2023-07-30T06:41:05;16.60;99.90
31799;DHT22;18374;51.136;3.502;2023-07-30T06:43:32;16.60;99.90
31799;DHT22;18374;51.136;3.502;2023-07-30T06:46:00;16.60;99.90
31799;DHT22;18374;51.136;3.502;2023-07-30T06:48:28;16.70;99.90
31799;DHT22;18374;51.136;3.502;2023-07-30T06:50:57;16.70;99.90
31799;DHT22;18374;51.136;3.502;2023-07-30T06:53:25;16.80;99.90
31799;DHT22;18374;51.136;3.502;2023-07-30T06:55:52;16.90;99.90
31799;DHT22;18374;51.136;3.502;2023-07-30T06:58:20;16.90;99.90
31799;DHT22;18374;51.136;3.502;2023-07-30T07:00:48;16.90;99.90
31799;DHT22;18374;51.136;3.502;2023-07-30T07:03:15;17.00;99.90
31799;DHT22;18374;51.136;3.502;2023-07-30T07:05:43;17.10;99.90
31799;DHT22;18374;51.136;3.502;2023-07-30T07:08:11;17.10;99.90
31799;DHT22;18374;51.136;3.502;2023-07-30T07:10:39;17.20;99.90
31799;DHT22;18374;51.136;3.502;2023-07-30T07:13:07;17.30;99.90
31799;DHT22;18374;51.136;3.502;2023-07-30T07:15:34;17.30;99.90
31799;DHT22;18374;51.136;3.502;2023-07-30T07:18:02;17.30;99.90
31799;DHT22;18374;51.136;3.502;2023-07-30T07:20:30;17.30;99.90
31799;DHT22;18374;51.136;3.502;2023-07-30T07:22:58;17.40;99.90
31799;DHT22;18374;51.136;3.502;2023-07-30T07:25:25;17.40;99.90
31799;DHT22;18374;51.136;3.502;2023-07-30T07:27:53;17.40;99.90
31799;DHT22;18374;51.136;3.502;2023-07-30T07:30:21;17.40;99.90
31799;DHT22;18374;51.136;3.502;2023-07-30T07:32:48;17.50;99.90
31799;DHT22;18374;51.136;3.502;2023-07-30T07:35:19;17.60;99.90
31799;DHT22;18374;51.136;3.502;2023-07-30T07:37:47;17.70;99.90
31799;DHT22;18374;51.136;3.502;2023-07-30T07:40:15;17.80;99.90
31799;DHT22;18374;51.136;3.502;2023-07-30T07:42:43;17.80;99.90
31799;DHT22;18374;51.136;3.502;2023-07-30T07:45:11;17.90;99.90
31799;DHT22;18374;51.136;3.502;2023-07-30T07:47:39;17.90;99.90
31799;DHT22;18374;51.136;3.502;2023-07-30T07:50:07;18.00;99.90
31799;DHT22;18374;51.136;3.502;2023-07-30T07:52:35;18.10;99.90
31799;DHT22;18374;51.136;3.502;2023-07-30T07:55:04;18.20;99.90
31799;DHT22;18374;51.136;3.502;2023-07-30T07:57:32;18.10;99.90
31799;DHT22;18374;51.136;3.502;2023-07-30T08:00:02;18.10;99.90
31799;DHT22;18374;51.136;3.502;2023-07-30T08:02:38;18.20;99.90
31799;DHT22;18374;51.136;3.502;2023-07-30T08:05:06;18.20;99.90
31799;DHT22;18374;51.136;3.502;2023-07-30T08:07:34;18.30;99.90
31799;DHT22;18374;51.136;3.502;2023-07-30T08:10:02;18.50;99.90
31799;DHT22;18374;51.136;3.502;2023-07-30T08:12:32;18.60;99.90
31799;DHT22;18374;51.136;3.502;2023-07-30T08:15:00;18.60;99.90
31799;DHT22;18374;51.136;3.502;2023-07-30T08:17:28;18.60;99.90
31799;DHT22;18374;51.136;3.502;2023-07-30T08:19:56;18.70;99.90
31799;DHT22;18374;51.136;3.502;2023-07-30T08:22:24;18.80;99.90
31799;DHT22;18374;51.136;3.502;2023-07-30T08:24:51;18.80;99.90
31799;DHT22;18374;51.136;3.502;2023-07-30T08:27:19;18.80;99.90
31799;DHT22;18374;51.136;3.502;2023-07-30T08:29:47;18.80;99.90
31799;DHT22;18374;51.136;3.502;2023-07-30T08:32:15;18.60;99.90
31799;DHT22;18374;51.136;3.502;2023-07-30T08:34:42;18.60;99.90
31799;DHT22;18374;51.136;3.502;2023-07-30T08:37:10;18.50;99.90
31799;DHT22;18374;51.136;3.502;2023-07-30T08:39:38;18.50;99.90
31799;DHT22;18374;51.136;3.502;2023-07-30T08:42:06;18.60;99.90
31799;DHT22;18374;51.136;3.502;2023-07-30T08:44:34;18.70;99.90
31799;DHT22;18374;51.136;3.502;2023-07-30T08:47:02;18.80;99.90
31799;DHT22;18374;51.136;3.502;2023-07-30T08:49:31;19.10;99.90
31799;DHT22;18374;51.136;3.502;2023-07-30T08:52:02;19.10;99.90
31799;DHT22;18374;51.136;3.502;2023-07-30T08:54:31;19.40;99.90
31799;DHT22;18374;51.136;3.502;2023-07-30T08:56:59;19.50;99.90
31799;DHT22;18374;51.136;3.502;2023-07-30T08:59:33;19.50;99.90
31799;DHT22;18374;51.136;3.502;2023-07-30T09:02:09;19.40;99.90
31799;DHT22;18374;51.136;3.502;2023-07-30T09:04:41;19.80;99.90
31799;DHT22;18374;51.136;3.502;2023-07-30T09:07:11;20.00;99.90
31799;DHT22;18374;51.136;3.502;2023-07-30T09:09:39;20.20;99.90
31799;DHT22;18374;51.136;3.502;2023-07-30T09:12:17;20.50;99.90
31799;DHT22;18374;51.136;3.502;2023-07-30T09:14:50;20.50;99.90
31799;DHT22;18374;51.136;3.502;2023-07-30T09:17:18;20.20;99.90
31799;DHT22;18374;51.136;3.502;2023-07-30T09:19:46;20.20;99.90
31799;DHT22;18374;51.136;3.502;2023-07-30T09:22:26;20.50;99.90
31799;DHT22;18374;51.136;3.502;2023-07-30T09:24:55;20.60;99.90
31799;DHT22;18374;51.136;3.502;2023-07-30T09:27:25;20.50;99.90
31799;DHT22;18374;51.136;3.502;2023-07-30T09:29:55;20.30;99.90
31799;DHT22;18374;51.136;3.502;2023-07-30T09:32:28;20.40;99.90
31799;DHT22;18374;51.136;3.502;2023-07-30T09:35:08;20.50;99.90
31799;DHT22;18374;51.136;3.502;2023-07-30T09:37:39;20.30;99.90
31799;DHT22;18374;51.136;3.502;2023-07-30T09:40:10;20.20;99.90
31799;DHT22;18374;51.136;3.502;2023-07-30T09:42:43;20.20;99.90
31799;DHT22;18374;51.136;3.502;2023-07-30T09:45:23;20.20;99.90
31799;DHT22;18374;51.136;3.502;2023-07-30T09:47:54;20.20;99.90
31799;DHT22;18374;51.136;3.502;2023-07-30T09:50:24;19.90;99.90
31799;DHT22;18374;51.136;3.502;2023-07-30T09:52:52;19.50;99.90
31799;DHT22;18374;51.136;3.502;2023-07-30T09:55:20;19.20;99.90
31799;DHT22;18374;51.136;3.502;2023-07-30T09:57:48;19.00;99.90
31799;DHT22;18374;51.136;3.502;2023-07-30T10:00:16;19.00;99.90
31799;DHT22;18374;51.136;3.502;2023-07-30T10:02:49;19.10;99.90
31799;DHT22;18374;51.136;3.502;2023-07-30T10:05:19;19.50;99.90
31799;DHT22;18374;51.136;3.502;2023-07-30T10:07:57;19.80;99.90
31799;DHT22;18374;51.136;3.502;2023-07-30T10:10:48;20.50;99.90
31799;DHT22;18374;51.136;3.502;2023-07-30T10:13:16;21.10;99.90
31799;DHT22;18374;51.136;3.502;2023-07-30T10:15:46;21.20;99.90
31799;DHT22;18374;51.136;3.502;2023-07-30T10:18:14;20.70;99.90
31799;DHT22;18374;51.136;3.502;2023-07-30T10:20:52;20.30;99.90
31799;DHT22;18374;51.136;3.502;2023-07-30T10:23:27;20.50;99.90
31799;DHT22;18374;51.136;3.502;2023-07-30T10:25:55;20.80;99.90
31799;DHT22;18374;51.136;3.502;2023-07-30T10:31:00;21.10;99.90
31799;DHT22;18374;51.136;3.502;2023-07-30T10:33:50;21.20;99.90
31799;DHT22;18374;51.136;3.502;2023-07-30T10:36:30;21.10;99.90
31799;DHT22;18374;51.136;3.502;2023-07-30T10:39:26;21.40;99.90
31799;DHT22;18374;51.136;3.502;2023-07-30T10:41:57;21.20;99.90
31799;DHT22;18374;51.136;3.502;2023-07-30T10:44:34;20.90;99.90
31799;DHT22;18374;51.136;3.502;2023-07-30T10:47:03;21.00;99.90
31799;DHT22;18374;51.136;3.502;2023-07-30T10:49:38;21.10;99.90
31799;DHT22;18374;51.136;3.502;2023-07-30T10:52:08;21.50;99.90
31799;DHT22;18374;51.136;3.502;2023-07-30T10:54:36;21.80;99.90
31799;DHT22;18374;51.136;3.502;2023-07-30T10:57:04;22.10;99.90
31799;DHT22;18374;51.136;3.502;2023-07-30T10:59:36;22.30;99.90
31799;DHT22;18374;51.136;3.502;2023-07-30T11:02:05;22.50;99.90
31799;DHT22;18374;51.136;3.502;2023-07-30T11:04:35;22.80;99.90
31799;DHT22;18374;51.136;3.502;2023-07-30T11:07:03;23.00;99.90
31799;DHT22;18374;51.136;3.502;2023-07-30T11:09:31;23.00;99.60
31799;DHT22;18374;51.136;3.502;2023-07-30T11:11:59;22.90;98.90
31799;DHT22;18374;51.136;3.502;2023-07-30T11:14:27;22.70;98.90
31799;DHT22;18374;51.136;3.502;2023-07-30T11:16:57;22.80;99.50
31799;DHT22;18374;51.136;3.502;2023-07-30T11:19:26;22.50;99.30
31799;DHT22;18374;51.136;3.502;2023-07-30T11:21:56;22.40;99.70
31799;DHT22;18374;51.136;3.502;2023-07-30T11:24:35;22.80;99.90
31799;DHT22;18374;51.136;3.502;2023-07-30T11:27:03;23.10;98.70
31799;DHT22;18374;51.136;3.502;2023-07-30T11:29:31;22.70;98.70
31799;DHT22;18374;51.136;3.502;2023-07-30T11:32:00;22.60;99.10
31799;DHT22;18374;51.136;3.502;2023-07-30T11:34:31;22.90;99.40
31799;DHT22;18374;51.136;3.502;2023-07-30T11:37:04;22.80;97.10
31799;DHT22;18374;51.136;3.502;2023-07-30T11:39:32;22.60;98.70
31799;DHT22;18374;51.136;3.502;2023-07-30T11:42:01;22.10;98.10
31799;DHT22;18374;51.136;3.502;2023-07-30T11:44:36;21.90;98.20
31799;DHT22;18374;51.136;3.502;2023-07-30T11:47:07;21.80;98.30
31799;DHT22;18374;51.136;3.502;2023-07-30T11:49:37;21.90;99.30
31799;DHT22;18374;51.136;3.502;2023-07-30T11:52:09;22.20;98.90
31799;DHT22;18374;51.136;3.502;2023-07-30T11:54:37;22.60;97.60
31799;DHT22;18374;51.136;3.502;2023-07-30T11:57:05;22.70;97.10
31799;DHT22;18374;51.136;3.502;2023-07-30T11:59:33;22.70;97.60
31799;DHT22;18374;51.136;3.502;2023-07-30T12:02:01;22.60;97.70
31799;DHT22;18374;51.136;3.502;2023-07-30T12:04:45;22.40;98.00
31799;DHT22;18374;51.136;3.502;2023-07-30T12:07:25;22.90;97.50
31799;DHT22;18374;51.136;3.502;2023-07-30T12:09:53;22.70;96.90
31799;DHT22;18374;51.136;3.502;2023-07-30T12:12:25;22.40;97.50
31799;DHT22;18374;51.136;3.502;2023-07-30T12:14:54;22.50;97.80
31799;DHT22;18374;51.136;3.502;2023-07-30T12:17:22;22.50;97.40
31799;DHT22;18374;51.136;3.502;2023-07-30T12:19:50;22.60;96.80
31799;DHT22;18374;51.136;3.502;2023-07-30T12:22:18;22.50;96.70
31799;DHT22;18374;51.136;3.502;2023-07-30T12:24:45;22.50;96.60
31799;DHT22;18374;51.136;3.502;2023-07-30T12:27:13;22.20;96.60
31799;DHT22;18374;51.136;3.502;2023-07-30T12:29:41;22.50;98.30
31799;DHT22;18374;51.136;3.502;2023-07-30T12:32:10;22.70;97.40
31799;DHT22;18374;51.136;3.502;2023-07-30T12:34:37;22.80;96.60
31799;DHT22;18374;51.136;3.502;2023-07-30T12:37:05;22.60;96.60
31799;DHT22;18374;51.136;3.502;2023-07-30T12:39:33;22.10;96.50
31799;DHT22;18374;51.136;3.502;2023-07-30T12:42:01;22.10;98.20
31799;DHT22;18374;51.136;3.502;2023-07-30T12:44:28;22.50;96.20
31799;DHT22;18374;51.136;3.502;2023-07-30T12:46:56;22.40;96.30
31799;DHT22;18374;51.136;3.502;2023-07-30T12:49:24;22.70;97.30
31799;DHT22;18374;51.136;3.502;2023-07-30T12:51:51;22.80;96.80
31799;DHT22;18374;51.136;3.502;2023-07-30T12:54:19;23.00;97.10
31799;DHT22;18374;51.136;3.502;2023-07-30T12:56:47;23.00;95.60
31799;DHT22;18374;51.136;3.502;2023-07-30T12:59:15;22.70;95.70
31799;DHT22;18374;51.136;3.502;2023-07-30T13:01:42;22.90;97.40
31799;DHT22;18374;51.136;3.502;2023-07-30T13:04:14;23.00;96.90
31799;DHT22;18374;51.136;3.502;2023-07-30T13:06:42;23.00;96.20
31799;DHT22;18374;51.136;3.502;2023-07-30T13:09:10;22.60;96.40
31799;DHT22;18374;51.136;3.502;2023-07-30T13:11:37;22.70;97.60
31799;DHT22;18374;51.136;3.502;2023-07-30T13:14:05;22.90;96.70
31799;DHT22;18374;51.136;3.502;2023-07-30T13:16:33;22.70;96.20
31799;DHT22;18374;51.136;3.502;2023-07-30T13:19:01;22.50;98.00
31799;DHT22;18374;51.136;3.502;2023-07-30T13:21:30;22.30;98.30
31799;DHT22;18374;51.136;3.502;2023-07-30T13:23:58;22.00;98.80
31799;DHT22;18374;51.136;3.502;2023-07-30T13:26:25;21.90;99.20
31799;DHT22;18374;51.136;3.502;2023-07-30T13:28:53;21.90;99.40
31799;DHT22;18374;51.136;3.502;2023-07-30T13:31:21;21.60;99.90
31799;DHT22;18374;51.136;3.502;2023-07-30T13:33:48;21.70;99.90
31799;DHT22;18374;51.136;3.502;2023-07-30T13:36:18;21.70;99.90
31799;DHT22;18374;51.136;3.502;2023-07-30T13:38:46;21.70;99.90
31799;DHT22;18374;51.136;3.502;2023-07-30T13:41:14;21.70;99.90
31799;DHT22;18374;51.136;3.502;2023-07-30T13:43:42;21.60;99.90
31799;DHT22;18374;51.136;3.502;2023-07-30T13:46:09;21.60;99.90
31799;DHT22;18374;51.136;3.502;2023-07-30T13:48:37;21.50;99.90
31799;DHT22;18374;51.136;3.502;2023-07-30T13:51:05;21.40;99.90
31799;DHT22;18374;51.136;3.502;2023-07-30T13:53:32;21.30;99.90
31799;DHT22;18374;51.136;3.502;2023-07-30T13:56:02;21.30;99.90
31799;DHT22;18374;51.136;3.502;2023-07-30T13:58:30;21.30;99.90
31799;DHT22;18374;51.136;3.502;2023-07-30T14:00:57;21.30;99.90
31799;DHT22;18374;51.136;3.502;2023-07-30T14:03:25;21.40;99.90
31799;DHT22;18374;51.136;3.502;2023-07-30T14:05:53;21.40;99.90
31799;DHT22;18374;51.136;3.502;2023-07-30T14:08:21;21.50;99.90
31799;DHT22;18374;51.136;3.502;2023-07-30T14:10:49;21.30;99.90
31799;DHT22;18374;51.136;3.502;2023-07-30T14:13:16;21.10;99.90
31799;DHT22;18374;51.136;3.502;2023-07-30T14:15:44;20.90;99.90
31799;DHT22;18374;51.136;3.502;2023-07-30T14:18:12;20.80;99.90
31799;DHT22;18374;51.136;3.502;2023-07-30T14:20:39;20.60;99.90
31799;DHT22;18374;51.136;3.502;2023-07-30T14:23:07;20.40;99.90
31799;DHT22;18374;51.136;3.502;2023-07-30T14:25:35;20.30;99.90
31799;DHT22;18374;51.136;3.502;2023-07-30T14:28:03;20.40;99.90
31799;DHT22;18374;51.136;3.502;2023-07-30T14:30:31;20.30;99.90
31799;DHT22;18374;51.136;3.502;2023-07-30T14:32:59;20.00;99.90
31799;DHT22;18374;51.136;3.502;2023-07-30T14:35:28;19.70;99.90
31799;DHT22;18374;51.136;3.502;2023-07-30T14:37:56;19.50;99.90
31799;DHT22;18374;51.136;3.502;2023-07-30T14:40:23;19.40;99.90
31799;DHT22;18374;51.136;3.502;2023-07-30T14:42:51;19.30;99.90
31799;DHT22;18374;51.136;3.502;2023-07-30T14:45:19;19.20;99.90
31799;DHT22;18374;51.136;3.502;2023-07-30T14:47:46;19.00;99.90
31799;DHT22;18374;51.136;3.502;2023-07-30T14:50:16;18.90;99.90
31799;DHT22;18374;51.136;3.502;2023-07-30T14:52:44;18.90;99.90
31799;DHT22;18374;51.136;3.502;2023-07-30T14:55:13;18.80;99.90
31799;DHT22;18374;51.136;3.502;2023-07-30T14:57:41;18.80;99.90
31799;DHT22;18374;51.136;3.502;2023-07-30T15:00:09;18.70;99.90
31799;DHT22;18374;51.136;3.502;2023-07-30T15:02:40;18.80;99.90
31799;DHT22;18374;51.136;3.502;2023-07-30T15:05:08;18.80;99.90
31799;DHT22;18374;51.136;3.502;2023-07-30T15:07:36;18.80;99.90
31799;DHT22;18374;51.136;3.502;2023-07-30T15:10:04;18.60;99.90
31799;DHT22;18374;51.136;3.502;2023-07-30T15:12:32;18.60;99.90
31799;DHT22;18374;51.136;3.502;2023-07-30T15:15:00;18.60;99.90
31799;DHT22;18374;51.136;3.502;2023-07-30T15:17:27;18.60;99.90
31799;DHT22;18374;51.136;3.502;2023-07-30T15:19:55;18.70;99.90
31799;DHT22;18374;51.136;3.502;2023-07-30T15:22:26;18.70;99.90
31799;DHT22;18374;51.136;3.502;2023-07-30T15:24:54;18.70;99.90
31799;DHT22;18374;51.136;3.502;2023-07-30T15:27:21;18.60;99.90
31799;DHT22;18374;51.136;3.502;2023-07-30T15:29:49;18.60;99.90
31799;DHT22;18374;51.136;3.502;2023-07-30T15:32:17;18.50;99.90
31799;DHT22;18374;51.136;3.502;2023-07-30T15:34:45;18.50;99.90
31799;DHT22;18374;51.136;3.502;2023-07-30T15:37:12;18.40;99.90
31799;DHT22;18374;51.136;3.502;2023-07-30T15:39:40;18.40;99.90
31799;DHT22;18374;51.136;3.502;2023-07-30T15:42:08;18.40;99.90
31799;DHT22;18374;51.136;3.502;2023-07-30T15:44:36;18.30;99.90
31799;DHT22;18374;51.136;3.502;2023-07-30T15:47:04;18.30;99.90
31799;DHT22;18374;51.136;3.502;2023-07-30T15:49:32;18.30;99.90
31799;DHT22;18374;51.136;3.502;2023-07-30T15:52:01;18.30;99.90
31799;DHT22;18374;51.136;3.502;2023-07-30T15:54:36;18.30;99.90
31799;DHT22;18374;51.136;3.502;2023-07-30T15:57:05;18.20;99.90
31799;DHT22;18374;51.136;3.502;2023-07-30T15:59:38;18.10;99.90
31799;DHT22;18374;51.136;3.502;2023-07-30T16:02:06;18.00;99.90
31799;DHT22;18374;51.136;3.502;2023-07-30T16:04:35;18.00;99.90
31799;DHT22;18374;51.136;3.502;2023-07-30T16:07:03;17.90;99.90
31799;DHT22;18374;51.136;3.502;2023-07-30T16:09:32;17.80;99.90
31799;DHT22;18374;51.136;3.502;2023-07-30T16:12:00;17.80;99.90
31799;DHT22;18374;51.136;3.502;2023-07-30T16:14:29;17.70;99.90
31799;DHT22;18374;51.136;3.502;2023-07-30T16:16:57;17.70;99.90
31799;DHT22;18374;51.136;3.502;2023-07-30T16:19:24;17.70;99.90
31799;DHT22;18374;51.136;3.502;2023-07-30T16:21:52;17.70;99.90
31799;DHT22;18374;51.136;3.502;2023-07-30T16:24:22;17.60;99.90
31799;DHT22;18374;51.136;3.502;2023-07-30T16:26:50;17.60;99.90
31799;DHT22;18374;51.136;3.502;2023-07-30T16:29:18;17.50;99.90
31799;DHT22;18374;51.136;3.502;2023-07-30T16:31:46;17.50;99.90
31799;DHT22;18374;51.136;3.502;2023-07-30T16:34:14;17.50;99.90
31799;DHT22;18374;51.136;3.502;2023-07-30T16:36:42;17.40;99.90
31799;DHT22;18374;51.136;3.502;2023-07-30T16:39:09;17.40;99.90
31799;DHT22;18374;51.136;3.502;2023-07-30T16:41:37;17.40;99.90
31799;DHT22;18374;51.136;3.502;2023-07-30T16:44:05;17.40;99.90
31799;DHT22;18374;51.136;3.502;2023-07-30T16:46:33;17.40;99.90
31799;DHT22;18374;51.136;3.502;2023-07-30T16:49:01;17.40;99.90
31799;DHT22;18374;51.136;3.502;2023-07-30T16:51:28;17.30;99.90
31799;DHT22;18374;51.136;3.502;2023-07-30T16:53:56;17.30;99.90
31799;DHT22;18374;51.136;3.502;2023-07-30T16:56:24;17.30;99.90
31799;DHT22;18374;51.136;3.502;2023-07-30T16:58:52;17.30;99.90
31799;DHT22;18374;51.136;3.502;2023-07-30T17:01:19;17.30;99.90
31799;DHT22;18374;51.136;3.502;2023-07-30T17:03:49;17.20;99.90
31799;DHT22;18374;51.136;3.502;2023-07-30T17:06:17;17.20;99.90
31799;DHT22;18374;51.136;3.502;2023-07-30T17:08:45;17.20;99.90
31799;DHT22;18374;51.136;3.502;2023-07-30T17:11:12;17.30;99.90
31799;DHT22;18374;51.136;3.502;2023-07-30T17:13:40;17.30;99.90
31799;DHT22;18374;51.136;3.502;2023-07-30T17:16:09;17.30;99.90
31799;DHT22;18374;51.136;3.502;2023-07-30T17:18:38;17.20;99.90
31799;DHT22;18374;51.136;3.502;2023-07-30T17:21:06;17.30;99.90
31799;DHT22;18374;51.136;3.502;2023-07-30T17:23:36;17.30;99.90
31799;DHT22;18374;51.136;3.502;2023-07-30T17:26:04;17.20;99.90
31799;DHT22;18374;51.136;3.502;2023-07-30T17:28:31;17.20;99.90
31799;DHT22;18374;51.136;3.502;2023-07-30T17:31:00;17.20;99.90
31799;DHT22;18374;51.136;3.502;2023-07-30T17:33:28;17.20;99.90
31799;DHT22;18374;51.136;3.502;2023-07-30T17:36:00;17.30;99.90
31799;DHT22;18374;51.136;3.502;2023-07-30T17:38:31;17.30;99.90
31799;DHT22;18374;51.136;3.502;2023-07-30T17:40:59;17.30;99.90
31799;DHT22;18374;51.136;3.502;2023-07-30T17:43:26;17.20;99.90
31799;DHT22;18374;51.136;3.502;2023-07-30T17:45:54;17.30;99.90
31799;DHT22;18374;51.136;3.502;2023-07-30T17:48:22;17.30;99.90
31799;DHT22;18374;51.136;3.502;2023-07-30T17:50:50;17.30;99.90
31799;DHT22;18374;51.136;3.502;2023-07-30T17:53:18;17.30;99.90
31799;DHT22;18374;51.136;3.502;2023-07-30T17:55:46;17.30;99.90